Time;durP1;ratioP1;P1;durP2;ratioP2;P2;SDS_P1;SDS_P2;PMS_P1;PMS_P2;Temp;Humidity;BMP_temperature;BMP_pressure;BME280_temperature;BME280_humidity;BME280_pressure;Samples;Min_cycle;Max_cycle;Signal;HPM_P1;HPM_P2
2021/08/30 00:01:39;;;;;;;20.87;13.30;;;18.30;85.40;;;;;;5053036;28;20213;-87
2021/08/30 00:04:05;;;;;;;20.97;12.63;;;18.40;85.10;;;;;;5036186;28;20197;-86
2021/08/30 00:06:30;;;;;;;16.80;10.60;;;18.40;85.00;;;;;;5053951;28;20416;-87
2021/08/30 00:08:56;;;;;;;20.57;12.70;;;18.40;85.00;;;;;;5052525;28;20419;-87
2021/08/30 00:11:22;;;;;;;21.00;11.07;;;18.30;85.10;;;;;;5052531;28;20181;-87
2021/08/30 00:13:49;;;;;;;15.10;10.77;;;18.20;85.00;;;;;;5054855;28;20216;-87
2021/08/30 00:16:14;;;;;;;17.88;11.60;;;18.20;85.20;;;;;;5052792;28;20235;-87
2021/08/30 00:18:41;;;;;;;17.33;11.27;;;18.20;85.40;;;;;;5052977;28;20180;-87
2021/08/30 00:21:06;;;;;;;16.20;10.90;;;18.20;85.40;;;;;;5052168;28;20205;-87
2021/08/30 00:23:32;;;;;;;18.10;12.60;;;18.30;85.40;;;;;;5053967;28;20205;-87
2021/08/30 00:25:59;;;;;;;20.07;10.60;;;18.40;85.10;;;;;;5056983;28;20180;-86
2021/08/30 00:28:25;;;;;;;19.45;10.57;;;18.50;84.80;;;;;;5056684;28;20768;-87
2021/08/30 00:30:51;;;;;;;19.53;12.07;;;18.40;84.40;;;;;;5057419;28;20192;-88
2021/08/30 00:33:17;;;;;;;18.17;11.23;;;18.40;84.40;;;;;;5057231;28;20193;-86
2021/08/30 00:35:42;;;;;;;16.30;11.17;;;18.40;84.30;;;;;;5056783;28;20419;-87
2021/08/30 00:38:08;;;;;;;16.33;10.70;;;18.50;84.30;;;;;;5057877;28;20182;-88
2021/08/30 00:40:35;;;;;;;18.20;11.13;;;18.40;84.20;;;;;;5056231;28;20603;-88
2021/08/30 00:43:04;;;;;;;19.25;12.10;;;18.40;84.10;;;;;;5056609;28;20216;-87
2021/08/30 00:45:31;;;;;;;22.08;12.48;;;18.30;84.20;;;;;;5056634;28;20181;-87
2021/08/30 00:47:57;;;;;;;17.25;10.85;;;18.20;84.30;;;;;;5056009;28;20185;-87
2021/08/30 00:50:23;;;;;;;14.30;11.13;;;18.20;84.70;;;;;;5057411;28;20639;-87
2021/08/30 00:52:51;;;;;;;21.05;10.30;;;18.20;84.70;;;;;;5055798;28;20443;-88
2021/08/30 00:55:19;;;;;;;19.92;11.48;;;18.10;84.70;;;;;;5057714;28;20181;-87
2021/08/30 00:57:45;;;;;;;27.02;12.65;;;18.10;84.80;;;;;;5056407;28;20181;-88
2021/08/30 01:00:11;;;;;;;14.60;10.20;;;18.10;84.80;;;;;;5057222;28;20189;-88
2021/08/30 01:02:38;;;;;;;19.25;11.52;;;18.10;84.70;;;;;;5056706;28;20208;-85
2021/08/30 01:05:05;;;;;;;15.13;10.02;;;18.10;84.80;;;;;;5056906;28;20368;-86
2021/08/30 01:07:36;;;;;;;14.68;10.48;;;18.10;84.70;;;;;;5056807;28;20169;-85
2021/08/30 01:10:12;;;;;;;21.08;11.05;;;18.20;84.70;;;;;;5057535;28;20184;-87
2021/08/30 01:13:03;;;;;;;17.20;10.27;;;18.10;84.50;;;;;;5058139;28;20205;-87
2021/08/30 01:15:43;;;;;;;15.05;10.20;;;18.20;84.60;;;;;;5059623;28;20169;-86
2021/08/30 01:18:20;;;;;;;19.60;12.00;;;18.10;84.70;;;;;;5058644;28;20169;-86
2021/08/30 01:20:49;;;;;;;15.98;11.43;;;18.10;84.70;;;;;;5060333;28;20265;-87
2021/08/30 01:23:15;;;;;;;19.52;11.77;;;18.20;84.40;;;;;;5060991;28;20292;-87
2021/08/30 01:25:41;;;;;;;25.30;11.18;;;18.10;84.40;;;;;;5061444;28;20177;-87
2021/08/30 01:28:08;;;;;;;18.17;11.63;;;18.10;84.70;;;;;;5062137;28;20242;-86
2021/08/30 01:30:36;;;;;;;16.00;11.48;;;17.90;84.90;;;;;;5063469;28;20177;-88
2021/08/30 01:33:03;;;;;;;15.50;11.23;;;18.00;85.20;;;;;;5063429;28;20277;-87
2021/08/30 01:35:31;;;;;;;20.75;11.10;;;18.00;85.20;;;;;;5063070;28;20173;-87
2021/08/30 01:38:00;;;;;;;18.98;10.93;;;18.10;85.00;;;;;;5062893;28;20185;-86
2021/08/30 01:40:28;;;;;;;17.70;10.75;;;18.10;84.90;;;;;;5063653;28;20215;-86
2021/08/30 01:42:57;;;;;;;13.85;10.63;;;18.00;84.60;;;;;;5062250;28;20205;-87
2021/08/30 01:45:25;;;;;;;20.73;12.25;;;18.10;84.80;;;;;;5064690;28;20179;-87
2021/08/30 01:47:53;;;;;;;18.92;11.77;;;18.20;84.60;;;;;;5063412;28;20185;-87
2021/08/30 01:50:21;;;;;;;26.33;11.32;;;18.10;84.60;;;;;;5064039;28;20191;-86
2021/08/30 01:52:49;;;;;;;19.00;11.20;;;18.10;84.50;;;;;;5077659;28;20219;-85
2021/08/30 02:03:27;;;;;;;17.75;10.50;;;18.00;85.10;;;;;;5057858;28;20223;-87
2021/08/30 02:06:00;;;;;;;14.20;10.63;;;18.00;84.90;;;;;;5055789;28;20262;-86
2021/08/30 02:08:29;;;;;;;15.80;10.80;;;18.00;84.80;;;;;;5059002;28;20244;-86
2021/08/30 02:10:57;;;;;;;18.27;10.90;;;18.10;84.80;;;;;;5057226;28;20230;-86
2021/08/30 02:13:27;;;;;;;17.38;10.45;;;18.00;84.50;;;;;;5056416;28;20204;-86
2021/08/30 02:15:54;;;;;;;19.08;11.02;;;18.00;84.60;;;;;;5057815;28;20196;-87
2021/08/30 02:18:28;;;;;;;14.77;10.48;;;18.10;84.70;;;;;;5055539;28;20193;-87
2021/08/30 02:21:09;;;;;;;20.88;10.80;;;18.10;84.60;;;;;;5056371;28;20610;-87
2021/08/30 02:23:41;;;;;;;17.13;11.02;;;17.90;84.70;;;;;;5057341;28;20196;-88
2021/08/30 02:26:12;;;;;;;16.20;10.05;;;18.00;84.90;;;;;;5077654;28;20185;-86
2021/08/30 02:28:41;;;;;;;15.90;10.20;;;18.10;84.70;;;;;;5077887;28;20172;-86
2021/08/30 02:31:09;;;;;;;16.50;11.25;;;18.10;84.70;;;;;;5067859;28;20193;-87
2021/08/30 02:33:36;;;;;;;27.02;10.38;;;18.10;84.50;;;;;;5060821;28;20268;-86
2021/08/30 02:36:04;;;;;;;16.58;10.55;;;18.10;84.50;;;;;;5065348;28;20177;-86
2021/08/30 02:38:32;;;;;;;24.27;11.32;;;18.00;84.30;;;;;;5059960;28;20177;-87
2021/08/30 02:41:00;;;;;;;16.33;10.52;;;18.00;84.30;;;;;;5057683;28;20535;-87
2021/08/30 02:43:27;;;;;;;15.52;9.45;;;18.00;84.50;;;;;;5056076;28;20204;-87
2021/08/30 02:45:54;;;;;;;23.30;11.05;;;18.00;84.70;;;;;;5056027;28;20251;-87
2021/08/30 02:48:22;;;;;;;19.90;10.93;;;18.10;84.70;;;;;;5053977;28;20258;-88
2021/08/30 02:50:49;;;;;;;17.00;11.38;;;18.00;84.40;;;;;;5055469;28;20177;-87
2021/08/30 02:53:15;;;;;;;17.02;10.32;;;18.00;84.30;;;;;;5054146;28;20525;-87
2021/08/30 02:55:41;;;;;;;13.57;9.10;;;18.00;84.10;;;;;;5054366;28;20181;-87
2021/08/30 02:58:08;;;;;;;17.75;10.27;;;18.10;84.10;;;;;;5055384;28;20640;-87
2021/08/30 03:00:34;;;;;;;16.83;9.75;;;18.10;84.00;;;;;;5054022;28;20205;-87
2021/08/30 03:03:02;;;;;;;17.83;9.87;;;18.00;84.00;;;;;;5054844;28;20532;-86
2021/08/30 03:05:29;;;;;;;17.40;10.48;;;18.00;84.30;;;;;;5054822;28;20582;-86
2021/08/30 03:07:56;;;;;;;16.30;10.55;;;18.00;84.20;;;;;;5054316;28;20197;-87
2021/08/30 03:10:22;;;;;;;17.63;11.07;;;18.00;84.30;;;;;;5055467;28;20267;-87
2021/08/30 03:12:51;;;;;;;15.70;10.13;;;18.10;84.20;;;;;;5052732;28;20730;-87
2021/08/30 03:15:22;;;;;;;15.60;10.73;;;18.10;84.10;;;;;;5054764;28;20507;-86
2021/08/30 03:17:50;;;;;;;16.08;9.95;;;18.10;83.90;;;;;;5055075;28;20184;-87
2021/08/30 03:20:20;;;;;;;17.30;12.00;;;18.10;83.90;;;;;;5053734;28;20177;-86
2021/08/30 03:22:49;;;;;;;17.02;9.80;;;18.10;84.10;;;;;;5055018;28;20197;-86
2021/08/30 03:25:16;;;;;;;15.82;11.30;;;18.20;84.00;;;;;;5053934;28;20191;-87
2021/08/30 03:27:47;;;;;;;19.63;10.25;;;18.30;84.00;;;;;;5054648;28;20206;-88
2021/08/30 03:30:15;;;;;;;16.60;9.90;;;18.30;83.50;;;;;;5054595;28;20184;-87
2021/08/30 03:32:43;;;;;;;18.48;9.55;;;18.20;83.50;;;;;;5053184;28;20193;-86
2021/08/30 03:35:11;;;;;;;12.77;9.15;;;18.10;83.60;;;;;;5056214;28;20176;-87
2021/08/30 03:37:41;;;;;;;14.00;10.07;;;18.00;83.60;;;;;;5053560;28;20234;-87
2021/08/30 03:40:09;;;;;;;20.25;11.25;;;18.10;83.60;;;;;;5055741;28;20212;-87
2021/08/30 03:42:37;;;;;;;18.98;10.75;;;18.10;83.60;;;;;;5053619;28;20287;-87
2021/08/30 03:45:04;;;;;;;17.48;9.90;;;18.10;83.70;;;;;;5055130;28;20173;-86
2021/08/30 03:47:30;;;;;;;15.68;10.05;;;18.10;83.40;;;;;;5056026;28;20211;-86
2021/08/30 03:49:56;;;;;;;16.47;9.67;;;18.10;83.20;;;;;;5053525;28;20173;-87
2021/08/30 03:52:24;;;;;;;17.58;10.80;;;18.00;83.20;;;;;;5053766;28;20439;-86
2021/08/30 03:54:50;;;;;;;14.00;10.07;;;18.10;83.40;;;;;;5053479;28;20577;-86
2021/08/30 03:57:17;;;;;;;13.23;9.40;;;18.10;83.30;;;;;;5054888;28;20192;-87
2021/08/30 03:59:47;;;;;;;19.30;9.40;;;18.10;83.20;;;;;;5058553;28;20280;-86
2021/08/30 04:02:15;;;;;;;16.02;10.10;;;18.10;83.30;;;;;;5055990;28;20227;-87
2021/08/30 04:04:43;;;;;;;13.95;8.35;;;18.00;83.20;;;;;;5041766;28;20365;-86
2021/08/30 04:07:09;;;;;;;19.60;9.15;;;18.10;83.30;;;;;;5057296;28;20173;-87
2021/08/30 04:09:36;;;;;;;15.50;10.85;;;18.10;83.20;;;;;;5057029;28;20188;-87
2021/08/30 04:12:03;;;;;;;16.15;10.27;;;18.10;83.10;;;;;;5058723;28;20270;-86
2021/08/30 04:14:29;;;;;;;18.20;10.68;;;18.10;83.20;;;;;;5056722;28;20177;-87
2021/08/30 04:16:55;;;;;;;15.05;9.70;;;18.10;83.10;;;;;;5057462;28;20177;-87
2021/08/30 04:19:20;;;;;;;14.80;9.10;;;18.20;83.00;;;;;;5057695;28;20177;-87
2021/08/30 04:21:49;;;;;;;16.57;9.10;;;18.30;82.80;;;;;;5057144;28;20201;-87
2021/08/30 04:24:15;;;;;;;15.50;10.15;;;18.20;82.50;;;;;;5058487;28;20181;-86
2021/08/30 04:26:41;;;;;;;15.27;10.40;;;18.20;82.40;;;;;;5057003;28;20173;-87
2021/08/30 04:29:07;;;;;;;12.83;9.60;;;18.10;82.60;;;;;;5058015;28;20714;-87
2021/08/30 04:31:33;;;;;;;15.05;9.65;;;18.10;82.80;;;;;;5058882;28;20188;-87
2021/08/30 04:33:59;;;;;;;16.75;9.68;;;18.20;82.80;;;;;;5057417;28;20208;-87
2021/08/30 04:36:25;;;;;;;14.60;8.90;;;18.20;82.60;;;;;;5059348;28;20177;-88
2021/08/30 04:38:51;;;;;;;15.50;10.77;;;18.30;82.40;;;;;;5056550;28;20189;-88
2021/08/30 04:41:17;;;;;;;17.17;9.63;;;18.30;82.20;;;;;;5057042;28;20209;-87
2021/08/30 04:43:43;;;;;;;15.47;10.30;;;18.20;82.90;;;;;;5057831;28;20442;-86
2021/08/30 04:46:10;;;;;;;13.93;8.88;;;18.20;82.20;;;;;;5056946;28;20419;-86
2021/08/30 04:48:35;;;;;;;14.32;9.32;;;18.00;82.10;;;;;;5057974;28;20660;-87
2021/08/30 04:51:01;;;;;;;14.47;10.43;;;17.90;82.50;;;;;;5056220;28;20185;-87
2021/08/30 04:53:27;;;;;;;15.77;10.03;;;17.90;82.80;;;;;;5058173;28;20639;-87
2021/08/30 04:55:53;;;;;;;16.10;9.33;;;17.90;82.80;;;;;;5059164;28;20545;-87
2021/08/30 04:58:19;;;;;;;18.15;11.18;;;17.90;83.00;;;;;;5058387;28;20292;-87
2021/08/30 05:00:44;;;;;;;17.67;10.73;;;17.80;83.00;;;;;;5058204;28;20248;-87
2021/08/30 05:03:10;;;;;;;19.40;9.60;;;17.80;82.90;;;;;;5055917;28;20193;-86
2021/08/30 05:05:38;;;;;;;12.67;9.57;;;17.90;83.00;;;;;;5057775;28;20923;-86
2021/08/30 05:08:04;;;;;;;15.85;10.55;;;17.80;83.00;;;;;;5058299;28;20642;-86
2021/08/30 05:10:29;;;;;;;15.63;9.17;;;17.80;83.00;;;;;;5055566;28;20264;-87
2021/08/30 05:12:55;;;;;;;13.60;10.07;;;17.80;83.10;;;;;;5057850;28;20776;-86
2021/08/30 05:15:21;;;;;;;24.93;11.73;;;17.70;83.30;;;;;;5058272;28;20438;-87
2021/08/30 05:17:49;;;;;;;16.27;10.83;;;17.50;83.80;;;;;;5056736;28;20181;-87
2021/08/30 05:20:15;;;;;;;27.00;10.80;;;17.60;83.90;;;;;;5056909;28;20231;-87
2021/08/30 05:22:40;;;;;;;18.17;11.13;;;17.60;83.80;;;;;;5057280;28;20193;-87
2021/08/30 05:25:07;;;;;;;17.10;10.03;;;17.80;83.40;;;;;;5058377;28;20411;-87
2021/08/30 05:27:33;;;;;;;19.13;10.43;;;17.70;83.30;;;;;;5056647;28;20706;-87
2021/08/30 05:29:59;;;;;;;14.48;10.27;;;17.70;83.60;;;;;;5040310;28;20181;-87
2021/08/30 05:32:25;;;;;;;19.20;10.70;;;17.60;83.50;;;;;;5055927;28;20197;-87
2021/08/30 05:34:50;;;;;;;14.85;11.15;;;17.60;83.60;;;;;;5055807;28;20420;-88
2021/08/30 05:37:16;;;;;;;15.17;10.10;;;17.70;83.60;;;;;;5055160;28;20177;-89
2021/08/30 05:39:42;;;;;;;16.97;11.13;;;17.70;83.50;;;;;;5055005;28;20189;-88
2021/08/30 05:42:07;;;;;;;19.03;11.40;;;17.80;83.30;;;;;;5054430;28;20263;-87
2021/08/30 05:44:33;;;;;;;17.20;11.10;;;17.80;83.10;;;;;;5056598;28;20251;-88
2021/08/30 05:46:59;;;;;;;20.13;11.03;;;17.80;82.90;;;;;;5056244;28;20169;-88
2021/08/30 05:49:25;;;;;;;19.50;12.07;;;17.80;82.90;;;;;;5056195;28;20541;-87
2021/08/30 05:51:50;;;;;;;16.73;11.60;;;18.00;82.80;;;;;;5054780;28;20177;-88
2021/08/30 05:54:16;;;;;;;16.40;9.93;;;17.90;82.70;;;;;;5056386;28;20246;-88
2021/08/30 05:56:42;;;;;;;16.13;11.40;;;18.20;82.30;;;;;;5057322;28;20188;-88
2021/08/30 05:59:08;;;;;;;14.57;10.00;;;18.20;81.80;;;;;;5074802;28;20193;-90
2021/08/30 06:01:36;;;;;;;20.37;10.70;;;18.70;81.50;;;;;;5076760;28;20189;-88
2021/08/30 06:04:05;;;;;;;12.85;9.50;;;19.00;79.70;;;;;;5060761;28;20666;-87
2021/08/30 06:06:30;;;;;;;15.95;9.82;;;19.40;78.80;;;;;;5056394;28;20188;-88
2021/08/30 06:08:56;;;;;;;13.97;9.07;;;19.60;77.10;;;;;;5057712;28;20169;-88
2021/08/30 06:11:22;;;;;;;16.40;11.37;;;19.70;76.00;;;;;;5054334;28;20648;-89
2021/08/30 06:13:48;;;;;;;15.60;9.80;;;19.90;75.60;;;;;;5056225;28;20193;-89
2021/08/30 06:16:13;;;;;;;16.80;9.80;;;20.00;74.50;;;;;;5054455;28;20622;-89
2021/08/30 06:18:39;;;;;;;11.07;9.27;;;19.90;74.40;;;;;;5056025;28;20184;-88
2021/08/30 06:21:05;;;;;;;19.50;10.30;;;20.00;74.40;;;;;;5055463;28;20227;-89
2021/08/30 06:23:31;;;;;;;20.47;10.07;;;19.90;74.70;;;;;;5063425;28;20439;-89
2021/08/30 06:25:59;;;;;;;18.02;12.25;;;19.70;74.70;;;;;;5077766;28;20637;-88
2021/08/30 06:28:26;;;;;;;17.52;11.15;;;19.60;75.20;;;;;;5077790;28;20188;-86
2021/08/30 06:30:51;;;;;;;14.48;10.02;;;19.40;75.40;;;;;;5063771;28;20189;-87
2021/08/30 06:33:17;;;;;;;19.27;10.90;;;19.20;76.20;;;;;;5058174;28;20341;-86
2021/08/30 06:35:43;;;;;;;17.67;11.20;;;19.00;77.30;;;;;;5058768;28;20234;-85
2021/08/30 06:38:10;;;;;;;18.87;11.40;;;18.90;77.20;;;;;;5058490;28;20422;-87
2021/08/30 06:40:36;;;;;;;16.20;11.23;;;19.10;77.50;;;;;;5058793;28;20219;-88
2021/08/30 06:43:02;;;;;;;19.33;11.00;;;19.10;77.40;;;;;;5054454;28;20205;-88
2021/08/30 06:45:28;;;;;;;18.57;11.50;;;19.40;77.00;;;;;;5056280;28;20183;-88
2021/08/30 06:47:54;;;;;;;18.98;12.25;;;19.70;75.40;;;;;;5058639;28;20435;-89
2021/08/30 06:50:21;;;;;;;17.20;11.50;;;19.70;74.20;;;;;;5045128;28;20555;-90
2021/08/30 06:52:46;;;;;;;25.25;12.73;;;19.80;73.80;;;;;;5047533;28;20198;-88
2021/08/30 06:55:12;;;;;;;17.97;11.60;;;19.60;74.40;;;;;;5037397;28;20185;-88
2021/08/30 06:57:39;;;;;;;17.48;12.90;;;19.50;75.00;;;;;;5038209;28;20170;-89
2021/08/30 07:00:06;;;;;;;22.88;13.15;;;19.40;75.20;;;;;;5048319;28;20595;-86
2021/08/30 07:02:32;;;;;;;16.50;12.10;;;19.30;75.60;;;;;;5060066;28;20236;-87
2021/08/30 07:04:57;;;;;;;24.20;13.27;;;19.20;76.00;;;;;;5074445;28;20212;-87
2021/08/30 07:07:23;;;;;;;19.90;12.60;;;19.20;76.40;;;;;;5077651;28;20177;-86
2021/08/30 07:09:49;;;;;;;17.73;12.27;;;19.20;76.30;;;;;;5077713;28;20169;-84
2021/08/30 07:12:15;;;;;;;17.45;11.90;;;19.30;76.10;;;;;;5076647;28;20184;-86
2021/08/30 07:14:41;;;;;;;21.93;13.80;;;19.30;76.10;;;;;;5076948;28;20276;-84
2021/08/30 07:17:06;;;;;;;21.73;14.33;;;19.30;76.10;;;;;;5076846;28;20185;-85
2021/08/30 07:19:32;;;;;;;24.70;13.60;;;19.30;76.10;;;;;;5076430;28;20204;-83
2021/08/30 07:21:58;;;;;;;20.60;14.07;;;19.40;76.10;;;;;;5075830;28;20231;-84
2021/08/30 07:24:24;;;;;;;28.87;14.27;;;19.40;76.00;;;;;;5076838;28;20249;-84
2021/08/30 07:26:50;;;;;;;24.33;14.20;;;19.30;76.00;;;;;;5076578;28;20197;-87
2021/08/30 07:29:16;;;;;;;24.20;14.70;;;19.20;76.20;;;;;;5076509;28;20267;-84
2021/08/30 07:31:42;;;;;;;23.50;14.82;;;19.10;76.60;;;;;;5075798;28;20196;-82
2021/08/30 07:34:08;;;;;;;30.63;14.33;;;19.10;76.90;;;;;;5075878;28;20272;-83
2021/08/30 07:36:34;;;;;;;28.10;15.20;;;19.20;76.80;;;;;;5076118;28;20169;-83
2021/08/30 07:39:04;;;;;;;29.92;14.32;;;19.20;76.90;;;;;;5076038;28;20446;-83
2021/08/30 07:41:30;;;;;;;23.17;14.45;;;19.30;76.60;;;;;;5075471;28;20224;-84
2021/08/30 07:43:58;;;;;;;23.98;13.27;;;19.40;76.30;;;;;;5074381;28;20556;-85
2021/08/30 07:46:25;;;;;;;24.73;14.88;;;19.50;76.30;;;;;;5072002;28;20173;-86
2021/08/30 07:48:51;;;;;;;22.20;15.15;;;19.40;76.00;;;;;;5073352;28;20196;-84
2021/08/30 07:51:18;;;;;;;29.27;14.50;;;19.70;76.30;;;;;;5073393;28;20180;-84
2021/08/30 07:53:44;;;;;;;24.38;14.35;;;19.70;75.30;;;;;;5065732;28;20226;-89
2021/08/30 07:56:11;;;;;;;23.02;14.90;;;19.70;75.60;;;;;;5060558;28;20235;-85
2021/08/30 07:58:37;;;;;;;26.65;13.18;;;19.80;75.40;;;;;;5060842;28;20181;-84
2021/08/30 08:01:03;;;;;;;22.35;13.77;;;19.80;75.10;;;;;;5062602;28;20264;-84
2021/08/30 08:03:29;;;;;;;19.55;12.35;;;19.90;75.00;;;;;;5061640;28;20264;-85
2021/08/30 08:05:55;;;;;;;20.53;14.10;;;19.90;75.00;;;;;;5059257;28;20184;-86
2021/08/30 08:08:21;;;;;;;23.37;14.03;;;20.00;74.80;;;;;;5058687;28;20415;-85
2021/08/30 08:10:47;;;;;;;25.27;14.70;;;20.00;74.30;;;;;;5058052;28;20435;-86
2021/08/30 08:13:13;;;;;;;23.77;15.23;;;20.10;74.30;;;;;;5058889;28;20463;-85
2021/08/30 08:15:40;;;;;;;21.75;14.73;;;20.20;74.10;;;;;;5058607;28;20416;-86
2021/08/30 08:18:06;;;;;;;21.55;14.48;;;20.20;74.00;;;;;;5057571;28;20219;-85
2021/08/30 08:20:32;;;;;;;21.40;15.43;;;20.40;73.80;;;;;;5058567;28;20200;-86
2021/08/30 08:22:59;;;;;;;24.08;15.20;;;20.50;73.10;;;;;;5059512;28;20439;-86
2021/08/30 08:25:25;;;;;;;20.27;12.90;;;20.30;73.30;;;;;;5059494;28;20177;-85
2021/08/30 08:27:51;;;;;;;28.63;14.57;;;20.20;73.50;;;;;;5058700;28;20604;-86
2021/08/30 08:30:16;;;;;;;22.10;14.77;;;20.30;73.70;;;;;;5060569;28;20418;-86
2021/08/30 08:32:43;;;;;;;24.60;15.47;;;20.20;73.60;;;;;;5061944;28;20228;-86
2021/08/30 08:35:11;;;;;;;25.33;14.27;;;20.20;74.00;;;;;;5064510;28;20177;-84
2021/08/30 08:37:37;;;;;;;26.40;15.13;;;20.20;74.20;;;;;;5067548;28;20582;-85
2021/08/30 08:40:05;;;;;;;31.10;15.25;;;20.20;73.80;;;;;;5065344;28;20189;-85
2021/08/30 08:42:32;;;;;;;27.63;16.00;;;20.10;74.10;;;;;;5056921;28;20216;-86
2021/08/30 08:44:57;;;;;;;25.92;16.70;;;20.00;74.50;;;;;;5058327;28;20641;-85
2021/08/30 08:47:23;;;;;;;22.30;15.97;;;20.10;74.90;;;;;;5059621;28;20226;-86
2021/08/30 08:49:53;;;;;;;20.73;13.43;;;19.90;74.80;;;;;;5059522;28;20177;-87
2021/08/30 08:52:20;;;;;;;23.90;16.90;;;19.90;75.20;;;;;;5058228;28;20581;-86
2021/08/30 08:54:46;;;;;;;23.10;13.75;;;19.90;75.70;;;;;;5059421;28;20185;-86
2021/08/30 08:57:12;;;;;;;22.00;14.77;;;20.10;75.70;;;;;;5059667;28;20214;-86
2021/08/30 08:59:38;;;;;;;26.23;14.20;;;20.10;75.40;;;;;;5060847;28;20204;-86
2021/08/30 09:02:06;;;;;;;20.33;13.88;;;20.20;75.00;;;;;;5060048;28;20215;-85
2021/08/30 09:04:34;;;;;;;24.85;14.85;;;20.30;74.50;;;;;;5061347;28;20177;-85
2021/08/30 09:07:12;;;;;;;17.77;13.50;;;20.50;74.40;;;;;;5062442;28;20165;-86
2021/08/30 09:09:40;;;;;;;17.52;13.52;;;20.50;73.80;;;;;;5059878;28;20173;-86
2021/08/30 09:12:22;;;;;;;26.30;14.05;;;20.50;73.70;;;;;;5059424;28;20208;-85
2021/08/30 09:14:50;;;;;;;23.73;14.52;;;20.40;73.80;;;;;;5060771;28;20203;-86
2021/08/30 09:17:16;;;;;;;24.65;14.25;;;20.40;74.10;;;;;;5063162;28;20164;-85
2021/08/30 09:19:42;;;;;;;25.58;15.18;;;20.50;73.90;;;;;;5063789;28;20181;-86
2021/08/30 09:22:10;;;;;;;20.65;13.63;;;20.50;73.90;;;;;;5067955;28;20220;-85
2021/08/30 09:24:37;;;;;;;23.48;15.10;;;20.50;73.60;;;;;;5070704;28;20243;-85
2021/08/30 09:27:11;;;;;;;23.02;15.45;;;20.50;73.60;;;;;;5066642;28;20534;-85
2021/08/30 09:29:42;;;;;;;19.13;13.23;;;20.60;73.50;;;;;;5068604;28;20180;-85
2021/08/30 09:32:12;;;;;;;25.15;14.18;;;20.70;73.30;;;;;;5068699;28;20197;-85
2021/08/30 09:34:42;;;;;;;19.38;14.55;;;20.50;73.10;;;;;;5067568;28;20189;-85
2021/08/30 09:37:19;;;;;;;22.65;14.40;;;20.30;74.10;;;;;;5060599;28;20178;-84
2021/08/30 09:39:50;;;;;;;20.85;13.15;;;20.40;74.30;;;;;;5059371;28;20283;-85
2021/08/30 09:42:16;;;;;;;23.85;13.80;;;20.20;74.40;;;;;;5057662;28;20252;-85
2021/08/30 09:44:42;;;;;;;18.40;13.30;;;20.40;74.20;;;;;;5059270;28;20181;-85
2021/08/30 09:47:21;;;;;;;20.60;13.40;;;20.30;74.00;;;;;;5061618;28;20172;-85
2021/08/30 09:49:49;;;;;;;17.80;12.32;;;20.30;74.00;;;;;;5059985;28;20230;-86
2021/08/30 09:52:17;;;;;;;21.02;14.20;;;20.50;74.10;;;;;;5062100;28;20205;-85
2021/08/30 09:54:43;;;;;;;19.60;13.70;;;20.40;73.80;;;;;;5060287;28;20181;-85
2021/08/30 09:57:10;;;;;;;23.83;14.20;;;20.50;73.80;;;;;;5067073;28;20188;-86
2021/08/30 09:59:38;;;;;;;19.77;15.05;;;20.50;73.00;;;;;;5066323;28;20173;-86
2021/08/30 10:02:05;;;;;;;20.10;13.77;;;20.60;72.90;;;;;;5076043;28;20197;-84
2021/08/30 10:04:33;;;;;;;20.95;13.57;;;20.40;72.90;;;;;;5054287;28;20263;-85
2021/08/30 10:07:00;;;;;;;23.77;13.50;;;20.40;73.20;;;;;;5043691;28;20174;-85
2021/08/30 10:09:26;;;;;;;18.48;13.35;;;20.40;73.40;;;;;;5060699;28;20181;-85
2021/08/30 10:11:52;;;;;;;20.02;14.18;;;20.50;73.40;;;;;;5051644;28;20186;-84
2021/08/30 10:14:22;;;;;;;22.17;14.70;;;20.70;73.40;;;;;;5039901;28;20178;-84
2021/08/30 10:16:49;;;;;;;16.67;12.63;;;20.80;72.60;;;;;;5040773;28;20189;-84
2021/08/30 10:19:30;;;;;;;26.73;15.23;;;20.70;72.50;;;;;;5045578;28;20193;-85
2021/08/30 10:21:57;;;;;;;22.90;13.93;;;20.60;72.40;;;;;;5048553;28;20228;-84
2021/08/30 10:24:23;;;;;;;19.95;13.30;;;20.50;73.10;;;;;;5054676;28;20181;-85
2021/08/30 10:26:51;;;;;;;21.73;15.30;;;20.40;73.20;;;;;;5069482;28;20177;-83
2021/08/30 10:29:18;;;;;;;26.63;14.38;;;20.40;73.50;;;;;;5061389;28;20162;-85
2021/08/30 10:31:48;;;;;;;23.17;14.63;;;20.40;73.50;;;;;;5065781;28;20363;-86
2021/08/30 10:34:33;;;;;;;22.25;12.75;;;20.50;73.10;;;;;;5044028;28;20201;-85
2021/08/30 10:37:00;;;;;;;16.13;13.40;;;20.70;72.80;;;;;;5042921;28;20177;-86
2021/08/30 10:39:43;;;;;;;19.80;13.87;;;20.80;72.70;;;;;;5061862;28;20177;-87
2021/08/30 10:42:13;;;;;;;16.33;12.43;;;21.20;71.80;;;;;;5076819;28;20463;-88
2021/08/30 10:44:56;;;;;;;16.87;12.90;;;21.30;70.70;;;;;;5078716;28;20404;-86
2021/08/30 10:47:33;;;;;;;16.13;12.53;;;21.60;70.80;;;;;;5078101;28;20446;-86
2021/08/30 10:49:59;;;;;;;17.80;12.23;;;21.90;69.80;;;;;;5077872;28;20422;-87
2021/08/30 10:52:27;;;;;;;19.13;11.87;;;22.10;68.10;;;;;;5077379;28;20455;-87
2021/08/30 10:54:53;;;;;;;19.53;12.50;;;22.30;67.70;;;;;;5077752;28;20165;-87
2021/08/30 10:57:35;;;;;;;18.37;12.83;;;22.00;67.30;;;;;;5077476;28;20458;-86
2021/08/30 11:00:07;;;;;;;19.17;12.40;;;21.90;67.60;;;;;;5077902;28;20421;-86
2021/08/30 11:02:45;;;;;;;17.63;11.00;;;22.00;67.50;;;;;;5077062;28;20498;-86
2021/08/30 11:05:11;;;;;;;18.80;12.00;;;22.00;67.30;;;;;;5077647;28;20415;-86
2021/08/30 11:07:37;;;;;;;22.07;12.30;;;22.10;66.90;;;;;;5077149;28;20427;-82
2021/08/30 11:10:08;;;;;;;18.80;10.23;;;22.20;66.70;;;;;;5077641;28;20423;-87
2021/08/30 11:12:34;;;;;;;13.90;10.00;;;22.30;66.10;;;;;;5077209;28;20447;-85
2021/08/30 11:15:01;;;;;;;17.20;10.00;;;22.10;64.90;;;;;;5077658;28;20450;-85
2021/08/30 11:17:31;;;;;;;19.90;11.13;;;22.10;64.90;;;;;;5078311;28;20450;-87
2021/08/30 11:19:59;;;;;;;18.97;11.50;;;22.10;65.20;;;;;;5077623;28;20428;-86
2021/08/30 11:22:30;;;;;;;26.17;11.77;;;22.00;65.50;;;;;;5077231;28;20475;-86
2021/08/30 11:24:59;;;;;;;14.77;11.00;;;22.00;66.70;;;;;;5077388;28;20412;-86
2021/08/30 11:27:29;;;;;;;16.00;10.73;;;21.70;66.30;;;;;;5077157;28;20471;-83
2021/08/30 11:30:00;;;;;;;15.00;11.50;;;21.50;67.10;;;;;;5077640;28;20466;-84
2021/08/30 11:32:29;;;;;;;20.73;11.50;;;21.50;67.40;;;;;;5077328;28;20439;-83
2021/08/30 11:34:56;;;;;;;20.80;11.47;;;21.60;67.20;;;;;;5077438;28;20411;-86
2021/08/30 11:37:28;;;;;;;18.00;10.83;;;21.60;66.70;;;;;;5078250;28;20423;-86
2021/08/30 11:39:55;;;;;;;15.40;10.20;;;21.80;66.90;;;;;;5076064;28;20453;-86
2021/08/30 11:42:23;;;;;;;14.83;9.57;;;21.80;66.90;;;;;;5077020;28;20491;-85
2021/08/30 11:44:50;;;;;;;15.67;11.77;;;21.70;67.20;;;;;;5077415;28;20454;-84
2021/08/30 11:47:19;;;;;;;14.57;10.80;;;21.90;67.20;;;;;;5076912;28;20427;-86
2021/08/30 11:49:50;;;;;;;14.30;10.70;;;22.00;66.60;;;;;;5076758;28;20408;-86
2021/08/30 11:52:19;;;;;;;15.07;11.43;;;21.90;66.40;;;;;;5076717;28;20465;-87
2021/08/30 11:54:59;;;;;;;20.77;11.43;;;22.10;66.60;;;;;;5077055;28;20527;-86
2021/08/30 11:57:27;;;;;;;16.00;10.13;;;21.80;66.20;;;;;;5076620;28;20469;-87
2021/08/30 11:59:54;;;;;;;17.03;10.00;;;21.80;66.20;;;;;;5075404;28;20196;-87
2021/08/30 12:02:20;;;;;;;14.90;9.33;;;22.10;66.20;;;;;;5060663;28;20536;-85
2021/08/30 12:04:47;;;;;;;14.07;8.80;;;21.90;65.70;;;;;;5061254;28;20437;-85
2021/08/30 12:07:15;;;;;;;14.52;9.90;;;21.70;66.40;;;;;;5070439;28;20195;-85
2021/08/30 12:09:52;;;;;;;11.70;10.40;;;21.50;67.40;;;;;;5072685;28;20197;-84
2021/08/30 12:12:26;;;;;;;16.83;9.57;;;21.60;67.30;;;;;;5058338;28;20189;-85
2021/08/30 12:15:13;;;;;;;13.30;8.82;;;21.50;67.00;;;;;;5050189;28;20173;-84
2021/08/30 12:17:45;;;;;;;16.63;9.03;;;21.70;67.30;;;;;;5052232;28;20212;-84
2021/08/30 12:20:17;;;;;;;13.03;9.13;;;22.10;65.50;;;;;;5065160;28;20420;-85
2021/08/30 12:22:48;;;;;;;14.47;8.67;;;22.40;64.50;;;;;;5065703;28;20475;-85
2021/08/30 12:25:26;;;;;;;12.87;8.30;;;22.70;63.00;;;;;;5067297;28;20417;-84
2021/08/30 12:27:52;;;;;;;13.00;8.83;;;22.80;61.70;;;;;;5063236;28;20418;-84
2021/08/30 12:30:20;;;;;;;18.43;9.67;;;22.80;61.30;;;;;;5046403;28;20412;-84
2021/08/30 12:32:49;;;;;;;13.80;9.50;;;22.70;61.80;;;;;;5066277;28;20431;-88
2021/08/30 12:35:20;;;;;;;13.10;9.07;;;22.70;61.70;;;;;;5067509;28;20424;-88
2021/08/30 12:37:49;;;;;;;19.43;8.40;;;22.90;61.50;;;;;;5043817;28;20451;-89
2021/08/30 12:40:16;;;;;;;19.80;9.90;;;22.90;61.30;;;;;;5043136;28;20994;-88